createdAt,value
2022-08-09T00:00:13.124Z,55.52
2022-08-09T00:02:49.161Z,55.90
2022-08-09T00:06:18.383Z,55.17
2022-08-09T00:08:04.297Z,55.26
2022-08-09T00:10:37.183Z,56.01
2022-08-09T00:13:12.909Z,55.34
2022-08-09T00:15:58.721Z,54.94
2022-08-09T00:18:26.159Z,56.33
2022-08-09T00:20:55.456Z,57.30
2022-08-09T00:23:56.394Z,57.41
2022-08-09T00:26:11.076Z,55.82
2022-08-09T00:28:38.216Z,55.78
2022-08-09T00:31:30.728Z,56.41
2022-08-09T00:33:52.238Z,58.81
2022-08-09T00:36:19.706Z,55.44
2022-08-09T00:38:46.316Z,56.34
2022-08-09T00:44:14.337Z,55.71
2022-08-09T00:44:15.501Z,55.62
2022-08-09T00:46:56.203Z,58.13
2022-08-09T00:49:28.330Z,57.20
2022-08-09T00:51:57.410Z,56.63
2022-08-09T00:54:31.534Z,56.49
2022-08-09T00:57:02.527Z,56.23
2022-08-09T00:59:40.916Z,57.92
2022-08-09T01:02:08.854Z,58.41
2022-08-09T01:04:52.611Z,57.80
2022-08-09T01:07:37.654Z,57.83
2022-08-09T01:10:13.961Z,56.75
2022-08-09T01:12:40.389Z,57.98
2022-08-09T01:15:16.675Z,58.39
2022-08-09T01:17:43.666Z,58.47
2022-08-09T01:20:15.089Z,60.53
2022-08-09T01:23:00.338Z,59.33
2022-08-09T01:25:50.980Z,59.02
2022-08-09T01:28:19.127Z,59.42
2022-08-09T01:30:51.660Z,60.46
2022-08-09T01:33:21.730Z,58.62
2022-08-09T01:36:03.461Z,58.88
2022-08-09T01:38:31.939Z,59.35
2022-08-09T01:41:05.840Z,59.41
2022-08-09T01:43:42.001Z,57.23
2022-08-09T01:46:30.151Z,59.08
2022-08-09T01:49:10.410Z,58.97
2022-08-09T01:52:07.383Z,59.10
2022-08-09T01:54:39.756Z,58.84
2022-08-09T01:57:09.686Z,59.37
2022-08-09T01:59:40.890Z,61.51
2022-08-09T02:02:19.359Z,60.87
2022-08-09T02:04:49.485Z,60.31
2022-08-09T02:08:41.106Z,60.75
2022-08-09T02:10:12.235Z,61.82
2022-08-09T02:12:39.949Z,61.35
2022-08-09T02:15:07.887Z,62.28
2022-08-09T02:18:01.138Z,60.85
2022-08-09T02:20:26.545Z,61.76
2022-08-09T02:23:08.965Z,62.26
2022-08-09T02:25:42.327Z,63.09
2022-08-09T02:28:17.900Z,61.38
2022-08-09T02:30:51.781Z,61.23
2022-08-09T02:33:23.105Z,61.91
2022-08-09T02:36:07.150Z,62.31
2022-08-09T02:38:42.013Z,62.43
2022-08-09T02:41:16.391Z,62.53
2022-08-09T02:43:54.826Z,63.01
2022-08-09T02:46:24.481Z,62.53
2022-08-09T02:48:51.574Z,62.43
2022-08-09T02:51:18.613Z,62.05
2022-08-09T02:53:53.122Z,63.13
2022-08-09T02:56:28.204Z,62.83
2022-08-09T02:58:55.211Z,63.10
2022-08-09T03:01:29.666Z,64.68
2022-08-09T03:04:16.652Z,65.23
2022-08-09T03:06:45.962Z,64.91
2022-08-09T03:09:16.333Z,65.52
2022-08-09T03:12:10.460Z,64.21
2022-08-09T03:14:32.155Z,65.97
2022-08-09T03:17:02.218Z,63.84
2022-08-09T03:19:59.554Z,64.12
2022-08-09T03:22:24.984Z,64.23
2022-08-09T03:25:13.598Z,64.84
2022-08-09T03:27:45.218Z,64.61
2022-08-09T03:30:12.695Z,66.43
2022-08-09T03:32:40.437Z,65.65
2022-08-09T03:35:24.330Z,66.64
2022-08-09T03:37:55.341Z,67.26
2022-08-09T03:40:25.047Z,65.79
2022-08-09T03:42:51.653Z,65.17
2022-08-09T03:46:03.831Z,64.99
2022-08-09T03:48:04.741Z,65.28
2022-08-09T03:50:33.172Z,65.66
2022-08-09T03:53:01.639Z,65.76
2022-08-09T03:55:30.166Z,65.53
2022-08-09T03:58:06.324Z,66.00
2022-08-09T04:00:44.067Z,64.74
2022-08-09T04:03:19.535Z,66.41
2022-08-09T04:05:50.913Z,65.73
2022-08-09T04:08:17.413Z,66.79
2022-08-09T04:10:44.503Z,66.69
2022-08-09T04:13:18.592Z,65.65
2022-08-09T04:16:19.442Z,65.98
2022-08-09T04:18:31.812Z,65.15
2022-08-09T04:20:58.581Z,68.54
2022-08-09T04:23:25.726Z,66.47
2022-08-09T04:25:53.324Z,65.28
2022-08-09T04:28:34.145Z,65.88
2022-08-09T04:31:05.673Z,66.28
2022-08-09T04:33:52.038Z,67.08
2022-08-09T04:36:24.760Z,67.40
2022-08-09T04:38:51.387Z,67.26
2022-08-09T04:41:18.768Z,68.39
2022-08-09T04:43:46.530Z,67.27
2022-08-09T04:46:38.306Z,68.27
2022-08-09T04:49:07.303Z,66.99
2022-08-09T04:51:34.995Z,66.95
2022-08-09T04:54:01.575Z,68.36
2022-08-09T04:56:28.012Z,68.59
2022-08-09T04:58:54.449Z,68.84
2022-08-09T05:01:21.923Z,68.86
2022-08-09T05:03:49.322Z,68.64
2022-08-09T05:06:27.961Z,68.41
2022-08-09T05:09:00.679Z,68.80
2022-08-09T05:11:30.513Z,67.68
2022-08-09T05:13:58.692Z,67.72
2022-08-09T05:16:28.446Z,68.65
2022-08-09T05:18:59.906Z,68.93
2022-08-09T05:21:30.450Z,67.15
2022-08-09T05:24:04.077Z,67.20
2022-08-09T05:26:36.554Z,68.41
2022-08-09T05:29:03.906Z,67.70
2022-08-09T05:31:39.829Z,66.71
2022-08-09T05:34:16.967Z,67.27
2022-08-09T05:36:44.134Z,66.77
2022-08-09T05:39:13.956Z,66.42
2022-08-09T05:41:55.443Z,67.54
2022-08-09T05:44:22.118Z,65.79
2022-08-09T05:46:55.410Z,66.87
2022-08-09T05:50:24.348Z,65.92
2022-08-09T05:52:08.469Z,65.97
2022-08-09T05:54:34.926Z,66.10
2022-08-09T05:57:01.380Z,65.26
2022-08-09T05:59:32.841Z,64.62
2022-08-09T06:01:59.994Z,65.18
2022-08-09T06:04:34.871Z,64.45
2022-08-09T06:07:01.650Z,64.71
2022-08-09T06:09:54.138Z,64.64
2022-08-09T06:12:14.829Z,64.62
2022-08-09T06:14:43.565Z,65.48
2022-08-09T06:17:10.367Z,65.79
2022-08-09T06:19:36.933Z,65.07
2022-08-09T06:22:04.000Z,64.55
2022-08-09T06:24:31.101Z,63.29
2022-08-09T06:26:58.081Z,62.29
2022-08-09T06:29:24.881Z,62.67
2022-08-09T06:32:08.888Z,62.23
2022-08-09T06:34:40.398Z,61.52
2022-08-09T06:37:09.947Z,58.46
2022-08-09T06:39:48.208Z,55.80
2022-08-09T06:42:24.802Z,54.64
2022-08-09T06:44:55.377Z,55.00
2022-08-09T06:47:24.036Z,53.06
2022-08-09T06:50:14.155Z,52.69
2022-08-09T06:52:40.052Z,50.77
2022-08-09T06:55:12.574Z,48.16
2022-08-09T06:58:02.119Z,46.49
2022-08-09T07:00:49.541Z,47.77
2022-08-09T07:03:13.279Z,46.48
2022-08-09T07:06:02.316Z,45.71
2022-08-09T07:08:26.872Z,45.07
2022-08-09T07:10:57.077Z,45.76
2022-08-09T07:13:29.715Z,45.38
2022-08-09T07:16:42.429Z,43.97
2022-08-09T07:18:43.901Z,42.91
2022-08-09T07:21:13.845Z,43.33
2022-08-09T07:23:46.710Z,42.60
2022-08-09T07:26:25.156Z,42.19
2022-08-09T07:29:08.967Z,41.73
2022-08-09T07:31:45.313Z,41.53
2022-08-09T07:34:20.238Z,41.08
2022-08-09T07:36:47.961Z,40.94
2022-08-09T07:39:19.989Z,40.27
2022-08-09T07:42:02.389Z,40.20
2022-08-09T07:44:32.961Z,39.83
2022-08-09T07:47:15.755Z,39.37
2022-08-09T07:50:05.105Z,39.96
2022-08-09T07:52:29.871Z,39.92
2022-08-09T07:54:56.774Z,38.88
2022-08-09T07:57:24.050Z,38.49
2022-08-09T08:00:03.132Z,37.92
2022-08-09T08:02:30.562Z,38.25
2022-08-09T08:04:57.253Z,38.65
2022-08-09T08:08:43.914Z,38.19
2022-08-09T08:10:11.678Z,37.18
2022-08-09T08:12:43.675Z,37.35
2022-08-09T08:15:13.944Z,37.66
2022-08-09T08:17:55.102Z,37.69
2022-08-09T08:20:28.979Z,36.23
2022-08-09T08:23:01.783Z,36.84
2022-08-09T08:25:44.798Z,36.73
2022-08-09T08:28:14.451Z,36.38
2022-08-09T08:30:42.251Z,35.74
2022-08-09T08:33:11.831Z,36.06
2022-08-09T08:35:58.500Z,36.73
2022-08-09T08:38:25.347Z,36.99
2022-08-09T08:40:55.705Z,35.95
2022-08-09T08:43:23.764Z,35.53
2022-08-09T08:45:53.179Z,35.64
2022-08-09T08:48:29.256Z,36.02
2022-08-09T08:50:58.297Z,34.97
2022-08-09T08:53:32.303Z,34.90
2022-08-09T08:56:03.455Z,35.44
2022-08-09T08:58:32.187Z,35.54
2022-08-09T09:01:03.043Z,36.03
2022-08-09T09:03:37.938Z,36.51
2022-08-09T09:06:05.800Z,36.53
2022-08-09T09:08:38.086Z,36.45
2022-08-09T09:11:07.377Z,36.56
2022-08-09T09:13:50.290Z,36.92
2022-08-09T09:16:30.319Z,37.29
2022-08-09T09:19:22.474Z,37.27
2022-08-09T09:22:05.257Z,37.54
2022-08-09T09:24:39.689Z,37.42
2022-08-09T09:27:08.571Z,37.31
2022-08-09T09:30:10.584Z,36.85
2022-08-09T09:32:32.547Z,38.14
2022-08-09T09:35:09.881Z,37.06
2022-08-09T09:37:40.393Z,36.13
2022-08-09T09:40:07.819Z,36.84
2022-08-09T09:42:35.347Z,37.00
2022-08-09T09:45:03.768Z,37.53
2022-08-09T09:47:32.724Z,37.31
2022-08-09T09:50:16.875Z,36.99
2022-08-09T09:52:54.475Z,35.50
2022-08-09T09:55:28.264Z,35.98
2022-08-09T09:58:17.295Z,34.51
2022-08-09T10:00:59.784Z,33.49
2022-08-09T10:03:37.201Z,33.98
2022-08-09T10:06:04.757Z,34.56
2022-08-09T10:08:32.061Z,35.29
2022-08-09T10:10:58.537Z,34.45
2022-08-09T10:13:43.039Z,33.80
2022-08-09T10:16:57.724Z,33.23
2022-08-09T10:18:59.859Z,33.13
2022-08-09T10:21:27.291Z,33.08
2022-08-09T10:23:54.867Z,32.66
2022-08-09T10:26:24.669Z,34.21
2022-08-09T10:29:22.647Z,30.85
2022-08-09T10:32:37.454Z,31.04
2022-08-09T10:34:33.438Z,31.39
2022-08-09T10:37:00.817Z,31.28
2022-08-09T10:39:28.518Z,31.41
2022-08-09T10:41:55.400Z,31.04
2022-08-09T10:44:23.092Z,31.64
2022-08-09T10:47:20.377Z,29.13
2022-08-09T10:49:59.414Z,30.31
2022-08-09T10:52:26.434Z,29.95
2022-08-09T10:54:53.642Z,29.46
2022-08-09T10:57:20.454Z,29.76
2022-08-09T10:59:57.742Z,29.65
2022-08-09T11:03:11.076Z,29.65
2022-08-09T11:05:30.012Z,29.36
2022-08-09T11:07:59.439Z,28.97
2022-08-09T11:10:53.406Z,28.87
2022-08-09T11:13:54.576Z,29.27
2022-08-09T11:16:35.179Z,28.25
2022-08-09T11:19:02.640Z,27.98
2022-08-09T11:21:57.476Z,27.71
2022-08-09T11:24:59.162Z,27.77
2022-08-09T11:28:05.379Z,28.13
2022-08-09T11:30:33.054Z,27.27
2022-08-09T11:33:03.168Z,26.52
2022-08-09T11:35:49.210Z,26.66
2022-08-09T11:38:19.678Z,25.48
2022-08-09T11:40:49.172Z,25.86
2022-08-09T11:43:25.633Z,24.76
2022-08-09T11:46:00.081Z,25.69
2022-08-09T11:48:29.908Z,24.27
2022-08-09T11:52:38.647Z,24.75
2022-08-09T11:54:00.621Z,24.25
2022-08-09T11:56:41.572Z,24.95
2022-08-09T11:59:11.650Z,24.56
2022-08-09T12:02:17.154Z,23.39
2022-08-09T12:04:28.620Z,23.90
2022-08-09T12:06:58.874Z,24.42
2022-08-09T12:09:26.455Z,23.79
2022-08-09T12:12:03.079Z,23.46
2022-08-09T12:14:37.017Z,23.21
2022-08-09T12:17:33.876Z,22.96
2022-08-09T12:20:00.083Z,23.72
2022-08-09T12:22:27.277Z,22.82
2022-08-09T12:25:10.929Z,22.75
2022-08-09T12:29:11.255Z,22.78
2022-08-09T12:30:36.534Z,22.55
2022-08-09T12:33:06.212Z,23.28
2022-08-09T12:35:40.183Z,23.25
2022-08-09T12:38:29.520Z,22.40
2022-08-09T12:41:04.099Z,22.83
2022-08-09T12:44:06.801Z,22.37
2022-08-09T12:46:18.613Z,21.91
2022-08-09T12:48:46.324Z,21.36
2022-08-09T12:51:12.775Z,21.75
2022-08-09T12:53:59.383Z,20.25
2022-08-09T12:56:40.011Z,20.83
2022-08-09T12:59:20.505Z,20.74
2022-08-09T13:01:59.715Z,20.30
2022-08-09T13:04:36.360Z,20.16
2022-08-09T13:07:16.516Z,20.47
2022-08-09T13:09:55.639Z,20.46
2022-08-09T13:12:28.022Z,20.38
2022-08-09T13:15:03.292Z,20.18
2022-08-09T13:17:58.609Z,20.24
2022-08-09T13:20:23.379Z,19.81
2022-08-09T13:23:01.846Z,19.92
2022-08-09T13:25:42.933Z,20.08
2022-08-09T13:28:34.147Z,20.21
2022-08-09T13:32:13.274Z,19.92
2022-08-09T13:33:56.793Z,20.60
2022-08-09T13:36:42.380Z,19.88
2022-08-09T13:41:17.271Z,20.14
2022-08-09T13:42:02.053Z,18.96
2022-08-09T13:44:29.125Z,19.62
2022-08-09T13:47:26.687Z,19.77
2022-08-09T13:49:57.590Z,19.78
2022-08-09T13:52:27.768Z,19.72
2022-08-09T13:54:59.672Z,19.25
2022-08-09T13:57:36.423Z,19.72
2022-08-09T14:00:06.919Z,18.80
2022-08-09T14:02:33.338Z,19.18
2022-08-09T14:05:08.945Z,19.71
2022-08-09T14:07:41.009Z,19.74
2022-08-09T14:10:17.564Z,18.43
2022-08-09T14:12:56.215Z,18.00
2022-08-09T14:16:06.530Z,19.01
2022-08-09T14:18:19.919Z,19.34
2022-08-09T14:20:54.241Z,19.57
2022-08-09T14:23:40.094Z,20.50
2022-08-09T14:26:07.147Z,20.60
2022-08-09T14:28:36.640Z,20.93
2022-08-09T14:31:03.152Z,21.06
2022-08-09T14:33:30.376Z,20.00
2022-08-09T14:36:19.970Z,19.46
2022-08-09T14:38:53.081Z,20.03
2022-08-09T14:41:34.841Z,20.13
2022-08-09T14:44:07.182Z,19.75
2022-08-09T14:46:54.808Z,20.13
2022-08-09T14:49:25.589Z,20.58
2022-08-09T14:51:53.210Z,20.90
2022-08-09T14:54:27.579Z,21.04
2022-08-09T14:56:59.005Z,20.71
2022-08-09T14:59:27.200Z,21.22
2022-08-09T15:01:54.892Z,21.60
2022-08-09T15:04:23.605Z,21.58
2022-08-09T15:06:51.331Z,22.07
2022-08-09T15:09:30.509Z,22.24
2022-08-09T15:12:05.292Z,21.78
2022-08-09T15:14:34.818Z,21.87
2022-08-09T15:17:07.745Z,22.16
2022-08-09T15:19:36.517Z,22.29
2022-08-09T15:22:03.366Z,22.49
2022-08-09T15:24:30.080Z,23.46
2022-08-09T15:26:57.692Z,22.67
2022-08-09T15:30:59.386Z,23.05
2022-08-09T15:32:29.813Z,23.49
2022-08-09T15:35:00.981Z,23.66
2022-08-09T15:37:56.154Z,23.53
2022-08-09T15:40:25.299Z,23.79
2022-08-09T15:42:58.413Z,23.58
2022-08-09T15:45:29.529Z,24.22
2022-08-09T15:48:05.239Z,23.80
2022-08-09T15:50:34.385Z,24.05
2022-08-09T15:53:07.547Z,23.93
2022-08-09T15:56:04.497Z,24.01
2022-08-09T15:58:32.900Z,24.27
2022-08-09T16:00:59.444Z,24.21
2022-08-09T16:03:29.423Z,24.04
2022-08-09T16:06:04.645Z,24.44
2022-08-09T16:08:31.630Z,24.39
2022-08-09T16:11:02.470Z,24.46
2022-08-09T16:14:02.582Z,24.75
2022-08-09T16:16:19.307Z,25.20
2022-08-09T16:18:46.549Z,25.39
2022-08-09T16:21:16.808Z,25.31
2022-08-09T16:23:50.832Z,25.47
2022-08-09T16:26:34.408Z,25.59
2022-08-09T16:29:10.571Z,26.12
2022-08-09T16:32:19.048Z,26.05
2022-08-09T16:34:25.472Z,26.65
2022-08-09T16:36:52.583Z,26.48
2022-08-09T16:39:19.255Z,26.92
2022-08-09T16:42:02.505Z,26.67
2022-08-09T16:44:31.794Z,26.87
2022-08-09T16:47:03.965Z,27.00
2022-08-09T16:50:29.595Z,27.03
2022-08-09T16:52:31.766Z,27.18
2022-08-09T16:54:58.347Z,26.99
2022-08-09T16:57:24.858Z,27.66
2022-08-09T16:59:57.323Z,27.31
2022-08-09T17:02:25.603Z,27.50
2022-08-09T17:04:52.097Z,26.80
2022-08-09T17:08:44.011Z,27.24
2022-08-09T17:10:07.229Z,27.48
2022-08-09T17:12:35.752Z,27.76
2022-08-09T17:15:30.526Z,27.79
2022-08-09T17:17:50.368Z,27.88
2022-08-09T17:20:34.763Z,27.73
2022-08-09T17:23:03.320Z,28.09
2022-08-09T17:25:31.291Z,28.05
2022-08-09T17:28:04.178Z,28.50
2022-08-09T17:30:31.643Z,28.15
2022-08-09T17:33:04.857Z,28.44
2022-08-09T17:35:33.273Z,28.69
2022-08-09T17:38:02.332Z,28.73
2022-08-09T17:40:41.382Z,28.74
2022-08-09T17:43:33.006Z,28.92
2022-08-09T17:46:03.490Z,28.93
2022-08-09T17:48:31.561Z,29.32
2022-08-09T17:51:08.679Z,29.80
2022-08-09T17:53:43.488Z,29.62
2022-08-09T17:56:19.356Z,29.70
2022-08-09T17:58:47.121Z,29.48
2022-08-09T18:01:22.611Z,29.71
2022-08-09T18:03:50.676Z,29.63
2022-08-09T18:06:30.693Z,29.83
2022-08-09T18:09:00.341Z,30.11
2022-08-09T18:11:26.775Z,29.99
2022-08-09T18:14:02.492Z,30.31
2022-08-09T18:16:32.289Z,30.90
2022-08-09T18:19:04.190Z,30.83
2022-08-09T18:21:46.611Z,31.38
2022-08-09T18:24:16.823Z,31.69
2022-08-09T18:26:46.333Z,31.61
2022-08-09T18:30:39.000Z,31.94
2022-08-09T18:32:00.450Z,32.37
2022-08-09T18:34:31.520Z,31.92
2022-08-09T18:36:58.150Z,32.29
2022-08-09T18:39:25.727Z,32.35
2022-08-09T18:42:00.718Z,32.44
2022-08-09T18:44:27.501Z,32.67
2022-08-09T18:47:08.155Z,32.68
2022-08-09T18:49:43.712Z,32.84
2022-08-09T18:52:13.675Z,33.42
2022-08-09T18:54:49.731Z,33.07
2022-08-09T18:57:19.893Z,33.32
2022-08-09T18:59:51.969Z,33.54
2022-08-09T19:02:31.975Z,33.50
2022-08-09T19:05:20.650Z,34.03
2022-08-09T19:08:04.368Z,33.86
2022-08-09T19:10:37.878Z,34.10
2022-08-09T19:13:19.279Z,34.22
2022-08-09T19:15:50.490Z,34.63
2022-08-09T19:18:33.158Z,34.42
2022-08-09T19:21:05.238Z,34.69
2022-08-09T19:24:39.489Z,34.60
2022-08-09T19:26:18.976Z,34.86
2022-08-09T19:28:56.091Z,34.91
2022-08-09T19:31:27.960Z,34.96
2022-08-09T19:33:57.239Z,35.25
2022-08-09T19:36:30.889Z,35.58
2022-08-09T19:38:59.623Z,35.72
2022-08-09T19:41:35.329Z,35.26
2022-08-09T19:44:03.369Z,36.03
2022-08-09T19:46:35.505Z,35.89
2022-08-09T19:50:08.600Z,36.53
2022-08-09T19:52:03.526Z,36.72
2022-08-09T19:54:30.705Z,36.75
2022-08-09T19:56:58.519Z,37.43
2022-08-09T19:59:57.602Z,37.73
2022-08-09T20:03:24.114Z,36.89
2022-08-09T20:05:01.204Z,37.12
2022-08-09T20:07:33.762Z,37.53
2022-08-09T20:10:17.611Z,37.39
2022-08-09T20:12:49.049Z,38.02
2022-08-09T20:16:34.446Z,38.19
2022-08-09T20:18:04.769Z,38.72
2022-08-09T20:20:35.013Z,38.92
2022-08-09T20:23:04.316Z,38.95
2022-08-09T20:25:38.161Z,39.94
2022-08-09T20:28:27.415Z,38.95
2022-08-09T20:30:58.525Z,40.19
2022-08-09T20:33:25.794Z,40.14
2022-08-09T20:35:52.837Z,40.49
2022-08-09T20:38:33.151Z,40.59
2022-08-09T20:41:06.094Z,41.01
2022-08-09T20:43:32.648Z,40.92
2022-08-09T20:46:33.484Z,42.52
2022-08-09T20:48:45.683Z,41.76
2022-08-09T20:51:19.393Z,42.58
2022-08-09T20:53:46.321Z,42.34
2022-08-09T20:56:20.074Z,43.74
2022-08-09T20:58:48.151Z,43.57
2022-08-09T21:01:34.624Z,42.97
2022-08-09T21:05:49.101Z,43.24
2022-08-09T21:06:48.935Z,42.51
2022-08-09T21:09:25.051Z,42.33
2022-08-09T21:14:34.729Z,45.03
2022-08-09T21:17:02.376Z,45.02
2022-08-09T21:20:18.550Z,44.81
2022-08-09T21:22:41.171Z,44.72
2022-08-09T21:25:26.889Z,45.07
2022-08-09T21:28:04.641Z,45.46
2022-08-09T21:30:33.972Z,46.70
2022-08-09T21:33:03.448Z,46.20
2022-08-09T21:35:39.522Z,46.34
2022-08-09T21:38:18.404Z,47.04
2022-08-09T21:40:50.582Z,46.65
2022-08-09T21:43:21.741Z,47.02
2022-08-09T21:46:03.907Z,46.68
2022-08-09T21:48:31.441Z,47.22
2022-08-09T21:50:58.686Z,47.14
2022-08-09T21:53:41.014Z,47.79
2022-08-09T21:56:15.161Z,47.16
2022-08-09T21:58:54.432Z,48.59
2022-08-09T22:01:26.397Z,47.90
2022-08-09T22:04:07.984Z,48.41
2022-08-09T22:06:34.411Z,48.20
2022-08-09T22:09:01.393Z,48.13
2022-08-09T22:12:06.059Z,48.70
2022-08-09T22:14:14.849Z,49.44
2022-08-09T22:16:41.408Z,49.05
2022-08-09T22:19:23.669Z,49.42
2022-08-09T22:21:54.454Z,50.68
2022-08-09T22:24:24.881Z,50.10
2022-08-09T22:26:52.215Z,49.50
2022-08-09T22:29:19.104Z,50.15
2022-08-09T22:31:57.464Z,50.14
2022-08-09T22:34:26.267Z,50.48
2022-08-09T22:36:54.023Z,50.47
2022-08-09T22:39:56.360Z,50.29
2022-08-09T22:42:22.382Z,51.20
2022-08-09T22:48:04.903Z,50.65
2022-08-09T22:48:11.071Z,51.15
2022-08-09T22:50:24.497Z,51.54
2022-08-09T22:52:54.937Z,51.45
2022-08-09T22:55:24.934Z,52.58
2022-08-09T22:58:00.529Z,52.11
2022-08-09T23:00:29.633Z,51.95
2022-08-09T23:02:56.244Z,52.89
2022-08-09T23:05:22.865Z,54.03
2022-08-09T23:08:22.330Z,52.85
2022-08-09T23:10:50.385Z,52.94
2022-08-09T23:13:16.847Z,53.11
2022-08-09T23:15:43.276Z,53.62
2022-08-09T23:18:28.863Z,53.41
2022-08-09T23:20:55.300Z,53.84
2022-08-09T23:23:21.705Z,52.44
2022-08-09T23:25:48.205Z,52.54
2022-08-09T23:28:16.140Z,53.09
2022-08-09T23:30:51.275Z,54.14
2022-08-09T23:33:18.414Z,53.51
2022-08-09T23:36:04.764Z,54.25
2022-08-09T23:38:31.557Z,54.32
2022-08-09T23:40:58.017Z,55.18
2022-08-09T23:43:24.467Z,53.60
2022-08-09T23:45:50.964Z,55.75
2022-08-09T23:48:18.181Z,54.64
2022-08-09T23:50:44.584Z,55.47
2022-08-09T23:53:11.123Z,55.79
2022-08-09T23:55:38.898Z,54.48
2022-08-09T23:58:08.491Z,56.09
